sensor_id;sensor_type;location;lat;lon;timestamp;pressure;altitude;pressure_sealevel;temperature;humidity
50057;BME280;36875;49.468;11.200;2023-07-08T00:01:54;98207.16;;;21.66;39.76
50057;BME280;36875;49.468;11.200;2023-07-08T00:04:21;98207.97;;;21.67;39.99
50057;BME280;36875;49.468;11.200;2023-07-08T00:06:47;98208.31;;;21.65;39.97
50057;BME280;36875;49.468;11.200;2023-07-08T00:09:13;98203.94;;;21.64;39.86
50057;BME280;36875;49.468;11.200;2023-07-08T00:11:38;98212.16;;;21.64;39.94
50057;BME280;36875;49.468;11.200;2023-07-08T00:14:04;98212.16;;;21.64;39.90
50057;BME280;36875;49.468;11.200;2023-07-08T00:16:30;98207.78;;;21.63;39.85
50057;BME280;36875;49.468;11.200;2023-07-08T00:18:55;98210.50;;;21.63;39.95
50057;BME280;36875;49.468;11.200;2023-07-08T00:21:22;98206.97;;;21.63;39.70
50057;BME280;36875;49.468;11.200;2023-07-08T00:23:49;98206.19;;;21.62;39.92
50057;BME280;36875;49.468;11.200;2023-07-08T00:26:21;98207.28;;;21.61;39.90
50057;BME280;36875;49.468;11.200;2023-07-08T00:28:47;98216.66;;;21.60;39.95
50057;BME280;36875;49.468;11.200;2023-07-08T00:31:12;98213.09;;;21.60;39.83
50057;BME280;36875;49.468;11.200;2023-07-08T00:33:39;98215.00;;;21.59;40.07
50057;BME280;36875;49.468;11.200;2023-07-08T00:36:08;98216.97;;;21.59;39.90
50057;BME280;36875;49.468;11.200;2023-07-08T00:38:37;98209.84;;;21.58;39.94
50057;BME280;36875;49.468;11.200;2023-07-08T00:41:09;98200.34;;;21.55;39.85
50057;BME280;36875;49.468;11.200;2023-07-08T00:43:37;98197.28;;;21.56;39.96
50057;BME280;36875;49.468;11.200;2023-07-08T00:46:13;98203.56;;;21.57;40.00
50057;BME280;36875;49.468;11.200;2023-07-08T00:48:44;98201.97;;;21.56;39.72
50057;BME280;36875;49.468;11.200;2023-07-08T00:51:11;98194.88;;;21.55;39.85
50057;BME280;36875;49.468;11.200;2023-07-08T00:53:38;98205.81;;;21.55;39.98
50057;BME280;36875;49.468;11.200;2023-07-08T00:56:08;98201.44;;;21.54;39.89
50057;BME280;36875;49.468;11.200;2023-07-08T00:58:39;98210.81;;;21.53;39.75
50057;BME280;36875;49.468;11.200;2023-07-08T01:01:07;98210.81;;;21.53;39.90
50057;BME280;36875;49.468;11.200;2023-07-08T01:03:39;98211.91;;;21.52;39.75
50057;BME280;36875;49.468;11.200;2023-07-08T01:06:06;98210.31;;;21.51;39.88
50057;BME280;36875;49.468;11.200;2023-07-08T01:08:32;98204.66;;;21.47;39.81
50057;BME280;36875;49.468;11.200;2023-07-08T01:11:02;98211.44;;;21.50;39.79
50057;BME280;36875;49.468;11.200;2023-07-08T01:13:30;98195.31;;;21.48;39.89
50057;BME280;36875;49.468;11.200;2023-07-08T01:15:57;98196.13;;;21.49;39.74
50057;BME280;36875;49.468;11.200;2023-07-08T01:18:24;98179.94;;;21.38;39.81
50057;BME280;36875;49.468;11.200;2023-07-08T01:20:51;98190.16;;;21.47;39.65
50057;BME280;36875;49.468;11.200;2023-07-08T01:23:21;98190.97;;;21.47;39.87
50057;BME280;36875;49.468;11.200;2023-07-08T01:25:47;98190.47;;;21.45;39.75
50057;BME280;36875;49.468;11.200;2023-07-08T01:28:14;98187.75;;;21.45;39.85
50057;BME280;36875;49.468;11.200;2023-07-08T01:30:41;98180.59;;;21.44;39.59
50057;BME280;36875;49.468;11.200;2023-07-08T01:33:13;98184.78;;;21.42;39.41
50057;BME280;36875;49.468;11.200;2023-07-08T01:35:41;98189.97;;;21.43;39.96
50057;BME280;36875;49.468;11.200;2023-07-08T01:38:09;98184.47;;;21.43;39.53
50057;BME280;36875;49.468;11.200;2023-07-08T01:40:37;98187.22;;;21.43;39.89
50057;BME280;36875;49.468;11.200;2023-07-08T01:43:05;98186.69;;;21.41;39.89
50057;BME280;36875;49.468;11.200;2023-07-08T01:45:34;98181.22;;;21.41;39.48
50057;BME280;36875;49.468;11.200;2023-07-08T01:48:02;98183.97;;;21.41;39.73
50057;BME280;36875;49.468;11.200;2023-07-08T01:50:31;98180.41;;;21.41;39.66
50057;BME280;36875;49.468;11.200;2023-07-08T01:52:59;98183.47;;;21.39;39.69
50057;BME280;36875;49.468;11.200;2023-07-08T01:55:27;98179.13;;;21.38;39.96
50057;BME280;36875;49.468;11.200;2023-07-08T01:57:56;98184.91;;;21.36;39.68
50057;BME280;36875;49.468;11.200;2023-07-08T02:00:22;98177.00;;;21.35;39.96
50057;BME280;36875;49.468;11.200;2023-07-08T02:02:49;98186.03;;;21.35;39.86
50057;BME280;36875;49.468;11.200;2023-07-08T02:05:15;98188.75;;;21.35;39.74
50057;BME280;36875;49.468;11.200;2023-07-08T02:07:41;98186.66;;;21.32;39.67
50057;BME280;36875;49.468;11.200;2023-07-08T02:10:07;98183.28;;;21.35;39.89
50057;BME280;36875;49.468;11.200;2023-07-08T02:12:33;98184.44;;;21.34;39.86
50057;BME280;36875;49.468;11.200;2023-07-08T02:15:01;98191.00;;;21.33;39.93
50057;BME280;36875;49.468;11.200;2023-07-08T02:17:26;98186.19;;;21.30;39.66
50057;BME280;36875;49.468;11.200;2023-07-08T02:19:54;98187.28;;;21.29;39.90
50057;BME280;36875;49.468;11.200;2023-07-08T02:22:19;98189.72;;;21.31;39.89
50057;BME280;36875;49.468;11.200;2023-07-08T02:24:45;98188.91;;;21.30;39.77
50057;BME280;36875;49.468;11.200;2023-07-08T02:27:10;98188.38;;;21.28;40.01
50057;BME280;36875;49.468;11.200;2023-07-08T02:29:36;98187.28;;;21.29;40.00
50057;BME280;36875;49.468;11.200;2023-07-08T02:32:05;98188.38;;;21.28;39.90
50057;BME280;36875;49.468;11.200;2023-07-08T02:34:30;98183.75;;;21.29;39.86
50057;BME280;36875;49.468;11.200;2023-07-08T02:36:56;98179.50;;;21.23;39.94
50057;BME280;36875;49.468;11.200;2023-07-08T02:39:21;98191.47;;;21.27;39.86
50057;BME280;36875;49.468;11.200;2023-07-08T02:41:47;98185.16;;;21.26;39.73
50057;BME280;36875;49.468;11.200;2023-07-08T02:44:12;98182.44;;;21.26;39.83
50057;BME280;36875;49.468;11.200;2023-07-08T02:46:38;98180.34;;;21.23;39.88
50057;BME280;36875;49.468;11.200;2023-07-08T02:49:04;98178.41;;;21.24;39.97
50057;BME280;36875;49.468;11.200;2023-07-08T02:51:30;98171.28;;;21.23;39.86
50057;BME280;36875;49.468;11.200;2023-07-08T02:53:56;98179.84;;;21.21;39.88
50057;BME280;36875;49.468;11.200;2023-07-08T02:56:22;98184.19;;;21.22;40.01
50057;BME280;36875;49.468;11.200;2023-07-08T02:58:48;98188.84;;;21.22;39.92
50057;BME280;36875;49.468;11.200;2023-07-08T03:01:13;98186.13;;;21.22;39.92
50057;BME280;36875;49.468;11.200;2023-07-08T03:03:42;98183.69;;;21.20;39.92
50057;BME280;36875;49.468;11.200;2023-07-08T03:06:10;98182.06;;;21.19;39.86
50057;BME280;36875;49.468;11.200;2023-07-08T03:08:35;98191.09;;;21.20;39.89
50057;BME280;36875;49.468;11.200;2023-07-08T03:11:02;98196.88;;;21.18;39.97
50057;BME280;36875;49.468;11.200;2023-07-08T03:13:29;98203.16;;;21.18;39.76
50057;BME280;36875;49.468;11.200;2023-07-08T03:15:55;98199.63;;;21.18;40.00
50057;BME280;36875;49.468;11.200;2023-07-08T03:18:21;98199.13;;;21.16;40.02
50057;BME280;36875;49.468;11.200;2023-07-08T03:20:48;98199.13;;;21.16;39.89
50057;BME280;36875;49.468;11.200;2023-07-08T03:23:15;98199.13;;;21.16;40.03
50057;BME280;36875;49.468;11.200;2023-07-08T03:25:41;98204.59;;;21.16;40.16
50057;BME280;36875;49.468;11.200;2023-07-08T03:28:08;98200.22;;;21.15;39.98
50057;BME280;36875;49.468;11.200;2023-07-08T03:30:39;98207.94;;;21.13;39.98
50057;BME280;36875;49.468;11.200;2023-07-08T03:33:05;98208.25;;;21.11;39.93
50057;BME280;36875;49.468;11.200;2023-07-08T03:35:30;98215.84;;;21.14;40.11
50057;BME280;36875;49.468;11.200;2023-07-08T03:37:56;98214.56;;;21.12;39.98
50057;BME280;36875;49.468;11.200;2023-07-08T03:40:23;98214.03;;;21.10;40.24
50057;BME280;36875;49.468;11.200;2023-07-08T03:42:48;98208.91;;;21.08;40.08
50057;BME280;36875;49.468;11.200;2023-07-08T03:45:14;98217.91;;;21.09;39.83
50057;BME280;36875;49.468;11.200;2023-07-08T03:47:39;98220.63;;;21.09;40.07
50057;BME280;36875;49.468;11.200;2023-07-08T03:50:07;98221.75;;;21.08;40.08
50057;BME280;36875;49.468;11.200;2023-07-08T03:52:39;98211.75;;;21.03;39.97
50057;BME280;36875;49.468;11.200;2023-07-08T03:55:05;98230.25;;;21.06;40.01
50057;BME280;36875;49.468;11.200;2023-07-08T03:57:32;98225.63;;;21.07;39.98
50057;BME280;36875;49.468;11.200;2023-07-08T03:59:58;98226.72;;;21.06;40.17
50057;BME280;36875;49.468;11.200;2023-07-08T04:02:23;98228.16;;;21.03;40.07
50057;BME280;36875;49.468;11.200;2023-07-08T04:04:49;98228.16;;;21.03;39.88
50057;BME280;36875;49.468;11.200;2023-07-08T04:07:15;98230.09;;;21.03;40.14
50057;BME280;36875;49.468;11.200;2023-07-08T04:09:41;98227.38;;;21.03;40.07
50057;BME280;36875;49.468;11.200;2023-07-08T04:12:10;98233.94;;;21.02;39.89
50057;BME280;36875;49.468;11.200;2023-07-08T04:14:37;98219.47;;;21.01;39.78
50057;BME280;36875;49.468;11.200;2023-07-08T04:17:02;98214.00;;;21.01;40.10
50057;BME280;36875;49.468;11.200;2023-07-08T04:19:28;98215.59;;;21.02;39.96
50057;BME280;36875;49.468;11.200;2023-07-08T04:21:53;98216.41;;;21.03;40.01
50057;BME280;36875;49.468;11.200;2023-07-08T04:24:19;98219.66;;;21.05;40.17
50057;BME280;36875;49.468;11.200;2023-07-08T04:26:46;98219.66;;;21.05;39.96
50057;BME280;36875;49.468;11.200;2023-07-08T04:29:15;98218.81;;;21.04;40.06
50057;BME280;36875;49.468;11.200;2023-07-08T04:31:42;98221.91;;;21.03;40.04
50057;BME280;36875;49.468;11.200;2023-07-08T04:34:08;98210.13;;;21.02;40.26
50057;BME280;36875;49.468;11.200;2023-07-08T04:36:33;98217.53;;;21.02;40.14
50057;BME280;36875;49.468;11.200;2023-07-08T04:38:59;98214.00;;;21.01;40.03
50057;BME280;36875;49.468;11.200;2023-07-08T04:41:25;98217.53;;;21.02;40.39
50057;BME280;36875;49.468;11.200;2023-07-08T04:43:51;98219.47;;;21.01;40.25
50057;BME280;36875;49.468;11.200;2023-07-08T04:46:20;98213.16;;;21.01;40.46
50057;BME280;36875;49.468;11.200;2023-07-08T04:48:50;98218.63;;;21.01;40.50
50057;BME280;36875;49.468;11.200;2023-07-08T04:51:16;98218.31;;;21.02;40.59
50057;BME280;36875;49.468;11.200;2023-07-08T04:53:41;98215.59;;;21.02;40.37
50057;BME280;36875;49.468;11.200;2023-07-08T04:56:07;98213.69;;;21.03;40.31
50057;BME280;36875;49.468;11.200;2023-07-08T04:58:33;98211.75;;;21.03;40.34
50057;BME280;36875;49.468;11.200;2023-07-08T05:00:58;98211.09;;;21.06;40.43
50057;BME280;36875;49.468;11.200;2023-07-08T05:03:24;98213.53;;;21.08;40.62
50057;BME280;36875;49.468;11.200;2023-07-08T05:05:50;98219.19;;;21.11;40.33
50057;BME280;36875;49.468;11.200;2023-07-08T05:08:16;98222.13;;;21.15;40.43
50057;BME280;36875;49.468;11.200;2023-07-08T05:10:41;98226.50;;;21.16;40.62
50057;BME280;36875;49.468;11.200;2023-07-08T05:13:07;98223.88;;;21.11;40.66
50057;BME280;36875;49.468;11.200;2023-07-08T05:15:32;98235.19;;;21.18;40.64
50057;BME280;36875;49.468;11.200;2023-07-08T05:17:58;98230.81;;;21.17;40.78
50057;BME280;36875;49.468;11.200;2023-07-08T05:20:23;98236.31;;;21.17;41.03
50057;BME280;36875;49.468;11.200;2023-07-08T05:22:50;98240.66;;;21.18;40.87
50057;BME280;36875;49.468;11.200;2023-07-08T05:25:18;98235.69;;;21.20;41.14
50057;BME280;36875;49.468;11.200;2023-07-08T05:27:45;98237.31;;;21.21;40.94
50057;BME280;36875;49.468;11.200;2023-07-08T05:30:14;98235.56;;;21.25;41.19
50057;BME280;36875;49.468;11.200;2023-07-08T05:32:40;98244.78;;;21.29;41.21
50057;BME280;36875;49.468;11.200;2023-07-08T05:35:06;98243.31;;;21.32;41.08
50057;BME280;36875;49.468;11.200;2023-07-08T05:37:31;98243.22;;;21.37;41.33
50057;BME280;36875;49.468;11.200;2023-07-08T05:39:58;98252.75;;;21.40;41.41
50057;BME280;36875;49.468;11.200;2023-07-08T05:42:27;98245.03;;;21.42;41.50
50057;BME280;36875;49.468;11.200;2023-07-08T05:44:53;98249.56;;;21.46;41.26
50057;BME280;36875;49.468;11.200;2023-07-08T05:47:20;98248.97;;;21.49;41.29
50057;BME280;36875;49.468;11.200;2023-07-08T05:49:46;98248.34;;;21.52;41.18
50057;BME280;36875;49.468;11.200;2023-07-08T05:52:12;98244.97;;;21.55;41.29
50057;BME280;36875;49.468;11.200;2023-07-08T05:54:38;98245.97;;;21.60;41.31
50057;BME280;36875;49.468;11.200;2023-07-08T05:57:05;98248.38;;;21.61;41.50
50057;BME280;36875;49.468;11.200;2023-07-08T05:59:32;98251.59;;;21.63;41.45
50057;BME280;36875;49.468;11.200;2023-07-08T06:01:57;98251.28;;;21.65;41.49
50057;BME280;36875;49.468;11.200;2023-07-08T06:04:23;98255.34;;;21.67;41.27
50057;BME280;36875;49.468;11.200;2023-07-08T06:06:48;98246.50;;;21.70;41.34
50057;BME280;36875;49.468;11.200;2023-07-08T06:09:14;98243.13;;;21.73;41.54
50057;BME280;36875;49.468;11.200;2023-07-08T06:11:39;98238.75;;;21.72;41.66
50057;BME280;36875;49.468;11.200;2023-07-08T06:14:07;98243.63;;;21.75;41.96
50057;BME280;36875;49.468;11.200;2023-07-08T06:16:33;98253.16;;;21.78;41.89
50057;BME280;36875;49.468;11.200;2023-07-08T06:19:00;98239.13;;;21.80;41.58
50057;BME280;36875;49.468;11.200;2023-07-08T06:21:26;98239.63;;;21.82;41.71
50057;BME280;36875;49.468;11.200;2023-07-08T06:23:51;98244.78;;;21.83;41.58
50057;BME280;36875;49.468;11.200;2023-07-08T06:26:17;98240.94;;;21.84;41.88
50057;BME280;36875;49.468;11.200;2023-07-08T06:28:42;98236.25;;;21.85;41.61
50057;BME280;36875;49.468;11.200;2023-07-08T06:31:09;98235.13;;;21.86;41.64
50057;BME280;36875;49.468;11.200;2023-07-08T06:33:35;98235.63;;;21.88;41.84
50057;BME280;36875;49.468;11.200;2023-07-08T06:36:01;98239.97;;;21.89;42.02
50057;BME280;36875;49.468;11.200;2023-07-08T06:38:26;98236.59;;;21.92;41.82
50057;BME280;36875;49.468;11.200;2023-07-08T06:40:52;98239.84;;;21.94;42.24
50057;BME280;36875;49.468;11.200;2023-07-08T06:43:17;98244.69;;;21.97;42.33
50057;BME280;36875;49.468;11.200;2023-07-08T06:45:43;98247.91;;;21.99;42.65
50057;BME280;36875;49.468;11.200;2023-07-08T06:48:10;98257.44;;;22.02;42.10
50057;BME280;36875;49.468;11.200;2023-07-08T06:50:35;98250.66;;;21.99;42.38
50057;BME280;36875;49.468;11.200;2023-07-08T06:53:01;98245.13;;;21.90;42.76
50057;BME280;36875;49.468;11.200;2023-07-08T06:55:26;98241.09;;;21.88;42.64
50057;BME280;36875;49.468;11.200;2023-07-08T06:57:52;98237.75;;;21.91;42.73
50057;BME280;36875;49.468;11.200;2023-07-08T07:00:18;98233.88;;;21.92;43.04
50057;BME280;36875;49.468;11.200;2023-07-08T07:02:43;98230.38;;;22.00;42.86
50057;BME280;36875;49.468;11.200;2023-07-08T07:05:10;98220.88;;;22.06;42.77
50057;BME280;36875;49.468;11.200;2023-07-08T07:07:36;98226.22;;;22.11;42.46
50057;BME280;36875;49.468;11.200;2023-07-08T07:10:01;98232.19;;;22.13;42.59
50057;BME280;36875;49.468;11.200;2023-07-08T07:12:27;98232.19;;;22.13;42.39
50057;BME280;36875;49.468;11.200;2023-07-08T07:14:52;98221.69;;;22.16;42.97
50057;BME280;36875;49.468;11.200;2023-07-08T07:17:18;98216.09;;;22.21;42.46
50057;BME280;36875;49.468;11.200;2023-07-08T07:19:44;98212.69;;;22.24;42.72
50057;BME280;36875;49.468;11.200;2023-07-08T07:22:11;98211.28;;;22.26;42.85
50057;BME280;36875;49.468;11.200;2023-07-08T07:24:37;98209.03;;;22.28;42.92
50057;BME280;36875;49.468;11.200;2023-07-08T07:27:03;98208.72;;;22.30;42.60
50057;BME280;36875;49.468;11.200;2023-07-08T07:29:39;98217.75;;;22.30;42.78
50057;BME280;36875;49.468;11.200;2023-07-08T07:32:06;98207.25;;;22.32;42.55
50057;BME280;36875;49.468;11.200;2023-07-08T07:34:32;98217.91;;;22.34;42.47
50057;BME280;36875;49.468;11.200;2023-07-08T07:36:57;98211.31;;;22.35;42.48
50057;BME280;36875;49.468;11.200;2023-07-08T07:39:24;98213.72;;;22.37;42.60
50057;BME280;36875;49.468;11.200;2023-07-08T07:41:50;98215.34;;;22.38;42.49
50057;BME280;36875;49.468;11.200;2023-07-08T07:44:17;98215.81;;;22.40;42.47
50057;BME280;36875;49.468;11.200;2023-07-08T07:46:46;98212.28;;;22.39;42.39
50057;BME280;36875;49.468;11.200;2023-07-08T07:49:12;98208.75;;;22.39;42.16
50057;BME280;36875;49.468;11.200;2023-07-08T07:51:38;98214.22;;;22.39;42.29
50057;BME280;36875;49.468;11.200;2023-07-08T07:54:03;98224.03;;;22.40;42.26
50057;BME280;36875;49.468;11.200;2023-07-08T07:56:30;98215.50;;;22.41;42.31
50057;BME280;36875;49.468;11.200;2023-07-08T07:58:56;98207.28;;;22.41;42.34
50057;BME280;36875;49.468;11.200;2023-07-08T08:01:21;98218.72;;;22.43;42.33
50057;BME280;36875;49.468;11.200;2023-07-08T08:03:48;98215.19;;;22.43;42.23
50057;BME280;36875;49.468;11.200;2023-07-08T08:06:16;98216.47;;;22.45;42.25
50057;BME280;36875;49.468;11.200;2023-07-08T08:08:43;98211.00;;;22.45;42.37
50057;BME280;36875;49.468;11.200;2023-07-08T08:11:08;98210.34;;;22.48;42.11
50057;BME280;36875;49.468;11.200;2023-07-08T08:13:36;98216.66;;;22.49;42.02
50057;BME280;36875;49.468;11.200;2023-07-08T08:16:02;98209.22;;;22.49;42.18
50057;BME280;36875;49.468;11.200;2023-07-08T08:18:27;98210.84;;;22.50;41.81
50057;BME280;36875;49.468;11.200;2023-07-08T08:20:53;98209.69;;;22.51;42.34
50057;BME280;36875;49.468;11.200;2023-07-08T08:23:18;98219.56;;;22.52;41.86
50057;BME280;36875;49.468;11.200;2023-07-08T08:25:44;98211.31;;;22.52;41.78
50057;BME280;36875;49.468;11.200;2023-07-08T08:28:10;98218.44;;;22.54;41.77
50057;BME280;36875;49.468;11.200;2023-07-08T08:30:37;98225.53;;;22.55;41.68
50057;BME280;36875;49.468;11.200;2023-07-08T08:33:03;98218.91;;;22.56;41.85
50057;BME280;36875;49.468;11.200;2023-07-08T08:35:28;98224.09;;;22.57;41.79
50057;BME280;36875;49.468;11.200;2023-07-08T08:37:54;98217.78;;;22.57;41.85
50057;BME280;36875;49.468;11.200;2023-07-08T08:40:20;98219.41;;;22.58;41.96
50057;BME280;36875;49.468;11.200;2023-07-08T08:42:51;98221.00;;;22.59;41.84
50057;BME280;36875;49.468;11.200;2023-07-08T08:45:19;98221.00;;;22.59;41.71
50057;BME280;36875;49.468;11.200;2023-07-08T08:47:50;98217.16;;;22.60;41.80
50057;BME280;36875;49.468;11.200;2023-07-08T08:50:20;98218.78;;;22.61;41.75
50057;BME280;36875;49.468;11.200;2023-07-08T08:52:50;98228.59;;;22.62;41.87
50057;BME280;36875;49.468;11.200;2023-07-08T08:58:14;98223.91;;;22.62;41.80
50057;BME280;36875;49.468;11.200;2023-07-08T09:00:51;98222.00;;;22.63;41.69
50057;BME280;36875;49.468;11.200;2023-07-08T09:03:30;98226.34;;;22.64;41.72
50057;BME280;36875;49.468;11.200;2023-07-08T09:05:58;98231.50;;;22.65;41.61
50057;BME280;36875;49.468;11.200;2023-07-08T09:08:31;98224.91;;;22.66;41.67
50057;BME280;36875;49.468;11.200;2023-07-08T09:11:00;98224.91;;;22.66;41.62
50057;BME280;36875;49.468;11.200;2023-07-08T09:13:29;98218.59;;;22.66;41.55
50057;BME280;36875;49.468;11.200;2023-07-08T09:16:02;98228.94;;;22.69;41.81
50057;BME280;36875;49.468;11.200;2023-07-08T09:18:35;98220.72;;;22.69;41.41
50057;BME280;36875;49.468;11.200;2023-07-08T09:21:15;98227.16;;;22.73;41.22
50057;BME280;36875;49.468;11.200;2023-07-08T09:23:45;98203.13;;;22.70;41.31
50057;BME280;36875;49.468;11.200;2023-07-08T09:26:16;98214.75;;;22.76;41.43
50057;BME280;36875;49.468;11.200;2023-07-08T09:28:44;98222.16;;;22.75;41.27
50057;BME280;36875;49.468;11.200;2023-07-08T09:31:22;98214.09;;;22.79;41.28
50057;BME280;36875;49.468;11.200;2023-07-08T09:33:51;98204.72;;;22.80;41.21
50057;BME280;36875;49.468;11.200;2023-07-08T09:36:18;98216.50;;;22.80;41.40
50057;BME280;36875;49.468;11.200;2023-07-08T09:38:47;98218.47;;;22.80;41.15
50057;BME280;36875;49.468;11.200;2023-07-08T09:41:13;98218.47;;;22.80;41.47
50057;BME280;36875;49.468;11.200;2023-07-08T09:43:39;98222.00;;;22.80;41.52
50057;BME280;36875;49.468;11.200;2023-07-08T09:46:05;98229.13;;;22.81;41.40
50057;BME280;36875;49.468;11.200;2023-07-08T09:48:36;98225.53;;;22.81;41.44
50057;BME280;36875;49.468;11.200;2023-07-08T09:51:04;98223.94;;;22.80;41.27
50057;BME280;36875;49.468;11.200;2023-07-08T09:53:29;98224.09;;;22.83;41.61
50057;BME280;36875;49.468;11.200;2023-07-08T09:55:56;98222.16;;;22.84;41.29
50057;BME280;36875;49.468;11.200;2023-07-08T09:58:25;98220.22;;;22.84;41.71
50057;BME280;36875;49.468;11.200;2023-07-08T10:00:54;98224.59;;;22.85;41.57
50057;BME280;36875;49.468;11.200;2023-07-08T10:03:22;98228.94;;;22.86;41.79
50057;BME280;36875;49.468;11.200;2023-07-08T10:05:49;98230.06;;;22.85;41.54
50057;BME280;36875;49.468;11.200;2023-07-08T10:08:18;98233.63;;;22.86;41.71
50057;BME280;36875;49.468;11.200;2023-07-08T10:10:46;98230.88;;;22.86;41.45
50057;BME280;36875;49.468;11.200;2023-07-08T10:13:17;98224.59;;;22.85;41.65
50057;BME280;36875;49.468;11.200;2023-07-08T10:15:47;98224.59;;;22.85;41.47
50057;BME280;36875;49.468;11.200;2023-07-08T10:18:16;98228.94;;;22.86;41.77
50057;BME280;36875;49.468;11.200;2023-07-08T10:20:49;98226.19;;;22.86;41.59
50057;BME280;36875;49.468;11.200;2023-07-08T10:23:30;98238.78;;;22.87;41.37
50057;BME280;36875;49.468;11.200;2023-07-08T10:26:05;98240.41;;;22.88;41.51
50057;BME280;36875;49.468;11.200;2023-07-08T10:28:40;98226.69;;;22.88;41.69
50057;BME280;36875;49.468;11.200;2023-07-08T10:31:21;98234.94;;;22.88;41.35
50057;BME280;36875;49.468;11.200;2023-07-08T10:36:40;98223.28;;;22.91;41.63
50057;BME280;36875;49.468;11.200;2023-07-08T10:39:24;98223.28;;;22.91;41.96
50057;BME280;36875;49.468;11.200;2023-07-08T10:42:01;98212.63;;;22.90;41.80
50057;BME280;36875;49.468;11.200;2023-07-08T10:44:37;98213.94;;;22.93;41.78
50057;BME280;36875;49.468;11.200;2023-07-08T10:47:25;98221.53;;;22.96;41.83
50057;BME280;36875;49.468;11.200;2023-07-08T10:50:04;98225.06;;;22.96;41.95
50057;BME280;36875;49.468;11.200;2023-07-08T10:52:41;98214.91;;;22.97;41.95
50057;BME280;36875;49.468;11.200;2023-07-08T10:55:20;98220.06;;;22.98;41.98
50057;BME280;36875;49.468;11.200;2023-07-08T11:01:10;98221.34;;;23.01;41.91
50057;BME280;36875;49.468;11.200;2023-07-08T11:06:45;98213.59;;;23.03;42.04
50057;BME280;36875;49.468;11.200;2023-07-08T11:09:16;98207.81;;;23.04;42.01
50057;BME280;36875;49.468;11.200;2023-07-08T11:11:49;98197.47;;;23.01;42.22
50057;BME280;36875;49.468;11.200;2023-07-08T11:14:21;98207.16;;;22.99;42.16
50057;BME280;36875;49.468;11.200;2023-07-08T11:16:53;98203.59;;;22.98;42.19
50057;BME280;36875;49.468;11.200;2023-07-08T11:19:24;98200.69;;;22.95;42.54
50057;BME280;36875;49.468;11.200;2023-07-08T11:21:52;98199.91;;;22.94;42.30
50057;BME280;36875;49.468;11.200;2023-07-08T11:24:23;98184.06;;;23.00;42.36
50057;BME280;36875;49.468;11.200;2023-07-08T11:26:52;98198.78;;;23.04;42.28
50057;BME280;36875;49.468;11.200;2023-07-08T11:29:22;98189.44;;;23.05;42.32
50057;BME280;36875;49.468;11.200;2023-07-08T11:31:49;98189.72;;;23.03;42.57
50057;BME280;36875;49.468;11.200;2023-07-08T11:34:18;98191.97;;;23.10;42.19
50057;BME280;36875;49.468;11.200;2023-07-08T11:36:45;98187.47;;;23.14;42.61
50057;BME280;36875;49.468;11.200;2023-07-08T11:39:27;98176.50;;;23.14;42.31
50057;BME280;36875;49.468;11.200;2023-07-08T11:42:04;98180.69;;;23.12;42.40
50057;BME280;36875;49.468;11.200;2023-07-08T11:44:33;98182.63;;;23.11;41.98
50057;BME280;36875;49.468;11.200;2023-07-08T11:46:58;98183.28;;;23.08;41.89
50057;BME280;36875;49.468;11.200;2023-07-08T11:49:24;98180.84;;;23.06;41.43
50057;BME280;36875;49.468;11.200;2023-07-08T11:51:52;98185.38;;;23.11;41.17
50057;BME280;36875;49.468;11.200;2023-07-08T11:54:27;98189.06;;;23.15;41.05
50057;BME280;36875;49.468;11.200;2023-07-08T11:57:00;98163.56;;;23.06;41.09
50057;BME280;36875;49.468;11.200;2023-07-08T11:59:30;98179.25;;;23.14;41.45
50057;BME280;36875;49.468;11.200;2023-07-08T12:02:01;98177.28;;;23.15;41.34
50057;BME280;36875;49.468;11.200;2023-07-08T12:04:30;98179.88;;;23.20;41.15
50057;BME280;36875;49.468;11.200;2023-07-08T12:07:12;98191.34;;;23.22;41.31
50057;BME280;36875;49.468;11.200;2023-07-08T12:09:45;98184.38;;;23.24;41.10
50057;BME280;36875;49.468;11.200;2023-07-08T12:12:21;98193.09;;;23.26;40.90
50057;BME280;36875;49.468;11.200;2023-07-08T12:14:47;98187.13;;;23.24;40.95
50057;BME280;36875;49.468;11.200;2023-07-08T12:17:14;98181.00;;;23.19;40.70
50057;BME280;36875;49.468;11.200;2023-07-08T12:19:42;98189.88;;;23.16;40.96
50057;BME280;36875;49.468;11.200;2023-07-08T12:22:09;98180.03;;;23.15;41.03
50057;BME280;36875;49.468;11.200;2023-07-08T12:24:35;98183.56;;;23.24;40.99
50057;BME280;36875;49.468;11.200;2023-07-08T12:27:02;98166.78;;;23.25;41.17
50057;BME280;36875;49.468;11.200;2023-07-08T12:29:29;98177.75;;;23.25;41.11
50057;BME280;36875;49.468;11.200;2023-07-08T12:31:55;98173.38;;;23.24;41.23
50057;BME280;36875;49.468;11.200;2023-07-08T12:34:23;98176.94;;;23.25;41.00
50057;BME280;36875;49.468;11.200;2023-07-08T12:36:50;98175.34;;;23.24;41.19
50057;BME280;36875;49.468;11.200;2023-07-08T12:39:16;98173.38;;;23.24;41.41
50057;BME280;36875;49.468;11.200;2023-07-08T12:41:44;98169.06;;;23.23;41.34
50057;BME280;36875;49.468;11.200;2023-07-08T12:44:16;98178.88;;;23.24;41.33
50057;BME280;36875;49.468;11.200;2023-07-08T12:46:45;98169.06;;;23.23;41.54
50057;BME280;36875;49.468;11.200;2023-07-08T12:49:12;98168.53;;;23.21;41.77
50057;BME280;36875;49.468;11.200;2023-07-08T12:51:41;98166.63;;;23.22;41.43
50057;BME280;36875;49.468;11.200;2023-07-08T12:54:09;98174.88;;;23.22;40.95
50057;BME280;36875;49.468;11.200;2023-07-08T12:56:35;98175.66;;;23.22;40.67
50057;BME280;36875;49.468;11.200;2023-07-08T12:59:03;98169.06;;;23.23;40.87
50057;BME280;36875;49.468;11.200;2023-07-08T13:01:30;98177.75;;;23.25;40.39
50057;BME280;36875;49.468;11.200;2023-07-08T13:04:01;98176.94;;;23.25;40.24
50057;BME280;36875;49.468;11.200;2023-07-08T13:06:29;98173.38;;;23.24;39.82